sensor_id;sensor_type;location;lat;lon;timestamp;temperature;humidity
25616;DHT22;13482;48.234;13.006;2022-08-21T00:01:51;21.10;79.50
25616;DHT22;13482;48.234;13.006;2022-08-21T00:04:19;21.10;79.50
25616;DHT22;13482;48.234;13.006;2022-08-21T00:06:49;21.20;79.50
25616;DHT22;13482;48.234;13.006;2022-08-21T00:09:18;21.20;79.60
25616;DHT22;13482;48.234;13.006;2022-08-21T00:11:46;21.20;79.50
25616;DHT22;13482;48.234;13.006;2022-08-21T00:14:15;21.20;79.50
25616;DHT22;13482;48.234;13.006;2022-08-21T00:16:42;21.20;79.50
25616;DHT22;13482;48.234;13.006;2022-08-21T00:19:10;21.30;79.50
25616;DHT22;13482;48.234;13.006;2022-08-21T00:21:37;21.30;79.50
25616;DHT22;13482;48.234;13.006;2022-08-21T00:24:05;21.30;79.50
25616;DHT22;13482;48.234;13.006;2022-08-21T00:26:33;21.30;79.40
25616;DHT22;13482;48.234;13.006;2022-08-21T00:29:02;21.30;79.30
25616;DHT22;13482;48.234;13.006;2022-08-21T00:31:30;21.30;79.30
25616;DHT22;13482;48.234;13.006;2022-08-21T00:33:58;21.30;79.30
25616;DHT22;13482;48.234;13.006;2022-08-21T00:36:27;21.30;79.30
25616;DHT22;13482;48.234;13.006;2022-08-21T00:38:55;21.30;79.30
25616;DHT22;13482;48.234;13.006;2022-08-21T00:41:23;21.30;79.30
25616;DHT22;13482;48.234;13.006;2022-08-21T00:44:08;21.30;79.30
25616;DHT22;13482;48.234;13.006;2022-08-21T00:46:38;21.30;79.30
25616;DHT22;13482;48.234;13.006;2022-08-21T00:49:06;21.30;79.30
25616;DHT22;13482;48.234;13.006;2022-08-21T00:51:48;21.30;79.30
25616;DHT22;13482;48.234;13.006;2022-08-21T00:54:22;21.30;79.60
25616;DHT22;13482;48.234;13.006;2022-08-21T00:56:57;21.30;79.40
25616;DHT22;13482;48.234;13.006;2022-08-21T00:59:28;21.30;79.50
25616;DHT22;13482;48.234;13.006;2022-08-21T01:02:00;21.30;79.40
25616;DHT22;13482;48.234;13.006;2022-08-21T01:04:27;21.30;79.50
25616;DHT22;13482;48.234;13.006;2022-08-21T01:06:55;21.30;79.50
25616;DHT22;13482;48.234;13.006;2022-08-21T01:09:22;21.30;79.50
25616;DHT22;13482;48.234;13.006;2022-08-21T01:11:49;21.30;79.50
25616;DHT22;13482;48.234;13.006;2022-08-21T01:14:17;21.30;79.50
25616;DHT22;13482;48.234;13.006;2022-08-21T01:16:50;21.20;79.60
25616;DHT22;13482;48.234;13.006;2022-08-21T01:19:20;21.20;79.60
25616;DHT22;13482;48.234;13.006;2022-08-21T01:21:49;21.20;79.60
25616;DHT22;13482;48.234;13.006;2022-08-21T01:24:16;21.20;79.50
25616;DHT22;13482;48.234;13.006;2022-08-21T01:26:45;21.20;79.60
25616;DHT22;13482;48.234;13.006;2022-08-21T01:29:57;21.20;79.60
25616;DHT22;13482;48.234;13.006;2022-08-21T01:32:13;21.10;79.60
25616;DHT22;13482;48.234;13.006;2022-08-21T01:34:46;21.10;79.60
25616;DHT22;13482;48.234;13.006;2022-08-21T01:37:14;21.10;79.70
25616;DHT22;13482;48.234;13.006;2022-08-21T01:39:43;21.00;79.70
25616;DHT22;13482;48.234;13.006;2022-08-21T01:42:12;21.00;79.90
25616;DHT22;13482;48.234;13.006;2022-08-21T01:44:40;21.00;79.90
25616;DHT22;13482;48.234;13.006;2022-08-21T01:47:10;20.90;80.00
25616;DHT22;13482;48.234;13.006;2022-08-21T01:49:40;21.00;80.00
25616;DHT22;13482;48.234;13.006;2022-08-21T01:52:09;21.00;80.00
25616;DHT22;13482;48.234;13.006;2022-08-21T01:54:38;21.00;80.00
25616;DHT22;13482;48.234;13.006;2022-08-21T01:57:06;21.00;80.10
25616;DHT22;13482;48.234;13.006;2022-08-21T01:59:34;21.00;80.10
25616;DHT22;13482;48.234;13.006;2022-08-21T02:02:01;21.00;80.10
25616;DHT22;13482;48.234;13.006;2022-08-21T02:04:30;21.00;80.00
25616;DHT22;13482;48.234;13.006;2022-08-21T02:07:00;21.00;80.00
25616;DHT22;13482;48.234;13.006;2022-08-21T02:09:28;21.00;80.00
25616;DHT22;13482;48.234;13.006;2022-08-21T02:11:56;21.10;80.00
25616;DHT22;13482;48.234;13.006;2022-08-21T02:14:23;21.10;80.00
25616;DHT22;13482;48.234;13.006;2022-08-21T02:16:58;21.10;80.00
25616;DHT22;13482;48.234;13.006;2022-08-21T02:19:36;21.10;79.90
25616;DHT22;13482;48.234;13.006;2022-08-21T02:22:09;21.10;79.90
25616;DHT22;13482;48.234;13.006;2022-08-21T02:24:38;21.10;79.90
25616;DHT22;13482;48.234;13.006;2022-08-21T02:27:19;21.10;79.90
25616;DHT22;13482;48.234;13.006;2022-08-21T02:29:52;21.10;79.90
25616;DHT22;13482;48.234;13.006;2022-08-21T02:32:19;21.10;79.90
25616;DHT22;13482;48.234;13.006;2022-08-21T02:34:48;21.10;79.90
25616;DHT22;13482;48.234;13.006;2022-08-21T02:37:15;21.10;79.90
25616;DHT22;13482;48.234;13.006;2022-08-21T02:39:43;21.10;79.90
25616;DHT22;13482;48.234;13.006;2022-08-21T02:42:10;21.10;80.00
25616;DHT22;13482;48.234;13.006;2022-08-21T02:44:37;21.10;80.00
25616;DHT22;13482;48.234;13.006;2022-08-21T02:47:05;21.10;80.00
25616;DHT22;13482;48.234;13.006;2022-08-21T02:49:32;21.10;80.00
25616;DHT22;13482;48.234;13.006;2022-08-21T02:52:00;21.10;80.00
25616;DHT22;13482;48.234;13.006;2022-08-21T02:54:27;21.10;80.00
25616;DHT22;13482;48.234;13.006;2022-08-21T02:56:54;21.10;80.00
25616;DHT22;13482;48.234;13.006;2022-08-21T02:59:21;21.10;80.00
25616;DHT22;13482;48.234;13.006;2022-08-21T03:01:48;21.10;80.00
25616;DHT22;13482;48.234;13.006;2022-08-21T03:04:16;21.10;80.00
25616;DHT22;13482;48.234;13.006;2022-08-21T03:06:43;21.10;80.00
25616;DHT22;13482;48.234;13.006;2022-08-21T03:09:10;21.10;80.00
25616;DHT22;13482;48.234;13.006;2022-08-21T03:11:37;21.10;80.00
25616;DHT22;13482;48.234;13.006;2022-08-21T03:14:05;21.10;80.00
25616;DHT22;13482;48.234;13.006;2022-08-21T03:16:32;21.10;80.00
25616;DHT22;13482;48.234;13.006;2022-08-21T03:19:01;21.10;80.00
25616;DHT22;13482;48.234;13.006;2022-08-21T03:21:29;21.10;80.00
25616;DHT22;13482;48.234;13.006;2022-08-21T03:23:57;21.10;79.90
25616;DHT22;13482;48.234;13.006;2022-08-21T03:26:24;21.10;79.90
25616;DHT22;13482;48.234;13.006;2022-08-21T03:28:53;21.10;79.90
25616;DHT22;13482;48.234;13.006;2022-08-21T03:31:21;21.10;79.90
25616;DHT22;13482;48.234;13.006;2022-08-21T03:33:48;21.10;79.90
25616;DHT22;13482;48.234;13.006;2022-08-21T03:36:16;21.10;79.90
25616;DHT22;13482;48.234;13.006;2022-08-21T03:38:43;21.10;79.90
25616;DHT22;13482;48.234;13.006;2022-08-21T03:41:10;21.00;79.90
25616;DHT22;13482;48.234;13.006;2022-08-21T03:43:38;21.00;80.00
25616;DHT22;13482;48.234;13.006;2022-08-21T03:46:06;21.00;80.00
25616;DHT22;13482;48.234;13.006;2022-08-21T03:48:36;21.00;80.00
25616;DHT22;13482;48.234;13.006;2022-08-21T03:51:04;21.00;80.00
25616;DHT22;13482;48.234;13.006;2022-08-21T03:53:33;20.90;80.00
25616;DHT22;13482;48.234;13.006;2022-08-21T03:56:01;20.90;80.00
25616;DHT22;13482;48.234;13.006;2022-08-21T03:58:28;21.00;80.00
25616;DHT22;13482;48.234;13.006;2022-08-21T04:00:59;20.90;80.00
25616;DHT22;13482;48.234;13.006;2022-08-21T04:03:28;20.90;80.10
25616;DHT22;13482;48.234;13.006;2022-08-21T04:05:55;20.90;80.10
25616;DHT22;13482;48.234;13.006;2022-08-21T04:08:23;20.90;80.10
25616;DHT22;13482;48.234;13.006;2022-08-21T04:10:52;20.90;80.20
25616;DHT22;13482;48.234;13.006;2022-08-21T04:13:21;20.90;80.20
25616;DHT22;13482;48.234;13.006;2022-08-21T04:15:49;20.80;80.20
25616;DHT22;13482;48.234;13.006;2022-08-21T04:18:16;20.80;80.20
25616;DHT22;13482;48.234;13.006;2022-08-21T04:20:45;20.80;80.30
25616;DHT22;13482;48.234;13.006;2022-08-21T04:23:20;20.80;80.30
25616;DHT22;13482;48.234;13.006;2022-08-21T04:25:51;20.80;80.30
25616;DHT22;13482;48.234;13.006;2022-08-21T04:28:20;20.80;80.30
25616;DHT22;13482;48.234;13.006;2022-08-21T04:30:50;20.80;80.40
25616;DHT22;13482;48.234;13.006;2022-08-21T04:33:20;20.80;80.40
25616;DHT22;13482;48.234;13.006;2022-08-21T04:35:48;20.80;80.40
25616;DHT22;13482;48.234;13.006;2022-08-21T04:38:17;20.80;80.40
25616;DHT22;13482;48.234;13.006;2022-08-21T04:40:45;20.80;80.50
25616;DHT22;13482;48.234;13.006;2022-08-21T04:43:13;20.80;80.50
25616;DHT22;13482;48.234;13.006;2022-08-21T04:45:43;20.80;80.50
25616;DHT22;13482;48.234;13.006;2022-08-21T04:48:13;20.80;80.50
25616;DHT22;13482;48.234;13.006;2022-08-21T04:54:14;20.80;80.60
25616;DHT22;13482;48.234;13.006;2022-08-21T04:56:48;20.80;80.90
25616;DHT22;13482;48.234;13.006;2022-08-21T04:59:30;20.80;80.40
25616;DHT22;13482;48.234;13.006;2022-08-21T05:02:00;20.80;80.50
25616;DHT22;13482;48.234;13.006;2022-08-21T05:04:31;20.80;80.40
25616;DHT22;13482;48.234;13.006;2022-08-21T05:07:02;20.90;80.40
25616;DHT22;13482;48.234;13.006;2022-08-21T05:09:32;20.90;80.40
25616;DHT22;13482;48.234;13.006;2022-08-21T05:12:01;20.90;80.40
25616;DHT22;13482;48.234;13.006;2022-08-21T05:14:29;20.90;80.40
25616;DHT22;13482;48.234;13.006;2022-08-21T05:16:56;20.90;80.40
25616;DHT22;13482;48.234;13.006;2022-08-21T05:19:24;20.90;80.40
25616;DHT22;13482;48.234;13.006;2022-08-21T05:21:51;20.90;80.40
25616;DHT22;13482;48.234;13.006;2022-08-21T05:24:19;20.90;80.40
25616;DHT22;13482;48.234;13.006;2022-08-21T05:26:46;20.90;80.30
25616;DHT22;13482;48.234;13.006;2022-08-21T05:29:15;20.90;80.20
25616;DHT22;13482;48.234;13.006;2022-08-21T05:31:45;20.90;80.20
25616;DHT22;13482;48.234;13.006;2022-08-21T05:34:17;20.90;80.30
25616;DHT22;13482;48.234;13.006;2022-08-21T05:36:46;20.90;80.30
25616;DHT22;13482;48.234;13.006;2022-08-21T05:39:14;20.90;80.30
25616;DHT22;13482;48.234;13.006;2022-08-21T05:41:41;20.90;80.30
25616;DHT22;13482;48.234;13.006;2022-08-21T05:44:09;20.90;80.30
25616;DHT22;13482;48.234;13.006;2022-08-21T05:46:37;21.00;80.30
25616;DHT22;13482;48.234;13.006;2022-08-21T05:49:05;21.00;80.30
25616;DHT22;13482;48.234;13.006;2022-08-21T05:51:32;21.00;80.30
25616;DHT22;13482;48.234;13.006;2022-08-21T05:53:59;21.00;80.20
25616;DHT22;13482;48.234;13.006;2022-08-21T05:56:26;21.00;80.20
25616;DHT22;13482;48.234;13.006;2022-08-21T05:58:54;21.00;80.20
25616;DHT22;13482;48.234;13.006;2022-08-21T06:01:22;21.00;80.20
25616;DHT22;13482;48.234;13.006;2022-08-21T06:03:49;21.00;80.20
25616;DHT22;13482;48.234;13.006;2022-08-21T06:06:16;21.00;80.20
25616;DHT22;13482;48.234;13.006;2022-08-21T06:08:45;21.00;80.20
25616;DHT22;13482;48.234;13.006;2022-08-21T06:11:12;21.00;80.10
25616;DHT22;13482;48.234;13.006;2022-08-21T06:13:39;21.00;80.10
25616;DHT22;13482;48.234;13.006;2022-08-21T06:16:13;21.00;80.10
25616;DHT22;13482;48.234;13.006;2022-08-21T06:18:43;21.00;80.00
25616;DHT22;13482;48.234;13.006;2022-08-21T06:21:12;21.00;80.00
25616;DHT22;13482;48.234;13.006;2022-08-21T06:23:41;21.00;79.90
25616;DHT22;13482;48.234;13.006;2022-08-21T06:26:11;21.00;79.90
25616;DHT22;13482;48.234;13.006;2022-08-21T06:28:41;21.00;79.90
25616;DHT22;13482;48.234;13.006;2022-08-21T06:31:15;21.00;80.00
25616;DHT22;13482;48.234;13.006;2022-08-21T06:33:50;21.00;79.90
25616;DHT22;13482;48.234;13.006;2022-08-21T06:36:18;20.90;79.90
25616;DHT22;13482;48.234;13.006;2022-08-21T06:38:47;20.90;79.90
25616;DHT22;13482;48.234;13.006;2022-08-21T06:41:19;20.90;80.00
25616;DHT22;13482;48.234;13.006;2022-08-21T06:43:50;20.90;80.00
25616;DHT22;13482;48.234;13.006;2022-08-21T06:46:17;20.90;80.10
25616;DHT22;13482;48.234;13.006;2022-08-21T06:48:44;20.90;80.20
25616;DHT22;13482;48.234;13.006;2022-08-21T06:51:13;21.00;80.20
25616;DHT22;13482;48.234;13.006;2022-08-21T06:53:40;21.00;80.10
25616;DHT22;13482;48.234;13.006;2022-08-21T06:56:07;21.00;80.20
25616;DHT22;13482;48.234;13.006;2022-08-21T06:58:35;21.00;80.20
25616;DHT22;13482;48.234;13.006;2022-08-21T07:01:02;21.10;80.10
25616;DHT22;13482;48.234;13.006;2022-08-21T07:03:33;21.10;80.10
25616;DHT22;13482;48.234;13.006;2022-08-21T07:06:03;21.10;80.00
25616;DHT22;13482;48.234;13.006;2022-08-21T07:08:31;21.20;79.80
25616;DHT22;13482;48.234;13.006;2022-08-21T07:11:00;21.20;79.60
25616;DHT22;13482;48.234;13.006;2022-08-21T07:13:30;21.20;79.70
25616;DHT22;13482;48.234;13.006;2022-08-21T07:15:57;21.20;79.70
25616;DHT22;13482;48.234;13.006;2022-08-21T07:18:29;21.20;79.80
25616;DHT22;13482;48.234;13.006;2022-08-21T07:20:57;21.20;79.80
25616;DHT22;13482;48.234;13.006;2022-08-21T07:23:28;21.20;79.90
25616;DHT22;13482;48.234;13.006;2022-08-21T07:25:58;21.30;80.00
25616;DHT22;13482;48.234;13.006;2022-08-21T07:28:28;21.30;80.00
25616;DHT22;13482;48.234;13.006;2022-08-21T07:30:58;21.30;79.90
25616;DHT22;13482;48.234;13.006;2022-08-21T07:33:29;21.30;79.90
25616;DHT22;13482;48.234;13.006;2022-08-21T07:35:57;21.40;79.80
25616;DHT22;13482;48.234;13.006;2022-08-21T07:38:25;21.50;79.80
25616;DHT22;13482;48.234;13.006;2022-08-21T07:40:55;21.50;79.80
25616;DHT22;13482;48.234;13.006;2022-08-21T07:43:25;21.50;79.70
25616;DHT22;13482;48.234;13.006;2022-08-21T07:45:53;21.50;79.90
25616;DHT22;13482;48.234;13.006;2022-08-21T07:48:22;21.60;79.90
25616;DHT22;13482;48.234;13.006;2022-08-21T07:50:49;21.70;79.80
25616;DHT22;13482;48.234;13.006;2022-08-21T07:53:17;21.70;79.70
25616;DHT22;13482;48.234;13.006;2022-08-21T07:55:45;21.80;79.60
25616;DHT22;13482;48.234;13.006;2022-08-21T07:58:12;21.80;79.70
25616;DHT22;13482;48.234;13.006;2022-08-21T08:00:40;21.90;79.70
25616;DHT22;13482;48.234;13.006;2022-08-21T08:03:07;21.90;79.40
25616;DHT22;13482;48.234;13.006;2022-08-21T08:05:36;22.00;79.30
25616;DHT22;13482;48.234;13.006;2022-08-21T08:08:06;22.10;79.50
25616;DHT22;13482;48.234;13.006;2022-08-21T08:10:35;22.10;79.40
25616;DHT22;13482;48.234;13.006;2022-08-21T08:13:02;22.20;79.30
25616;DHT22;13482;48.234;13.006;2022-08-21T08:15:29;22.20;79.20
25616;DHT22;13482;48.234;13.006;2022-08-21T08:18:03;22.30;79.10
25616;DHT22;13482;48.234;13.006;2022-08-21T08:20:30;22.40;78.90
25616;DHT22;13482;48.234;13.006;2022-08-21T08:22:58;22.50;78.70
25616;DHT22;13482;48.234;13.006;2022-08-21T08:25:26;22.50;78.70
25616;DHT22;13482;48.234;13.006;2022-08-21T08:28:02;22.50;78.60
25616;DHT22;13482;48.234;13.006;2022-08-21T08:30:44;22.60;78.60
25616;DHT22;13482;48.234;13.006;2022-08-21T08:33:13;22.70;78.70
25616;DHT22;13482;48.234;13.006;2022-08-21T08:35:44;22.80;78.50
25616;DHT22;13482;48.234;13.006;2022-08-21T08:38:14;22.80;78.30
25616;DHT22;13482;48.234;13.006;2022-08-21T08:41:22;22.90;78.00
25616;DHT22;13482;48.234;13.006;2022-08-21T08:44:02;23.00;77.50
25616;DHT22;13482;48.234;13.006;2022-08-21T08:46:44;23.00;77.80
25616;DHT22;13482;48.234;13.006;2022-08-21T08:49:22;23.10;77.60
25616;DHT22;13482;48.234;13.006;2022-08-21T08:52:05;23.10;78.00
25616;DHT22;13482;48.234;13.006;2022-08-21T08:54:45;23.20;77.10
25616;DHT22;13482;48.234;13.006;2022-08-21T08:57:18;23.30;77.60
25616;DHT22;13482;48.234;13.006;2022-08-21T08:59:51;23.40;77.60
25616;DHT22;13482;48.234;13.006;2022-08-21T09:02:20;23.50;77.80
25616;DHT22;13482;48.234;13.006;2022-08-21T09:04:51;23.60;78.00
25616;DHT22;13482;48.234;13.006;2022-08-21T09:07:42;23.70;77.80
25616;DHT22;13482;48.234;13.006;2022-08-21T09:13:36;24.00;76.10
25616;DHT22;13482;48.234;13.006;2022-08-21T09:25:15;24.80;77.40
25616;DHT22;13482;48.234;13.006;2022-08-21T09:27:50;25.00;76.90
25616;DHT22;13482;48.234;13.006;2022-08-21T09:30:18;25.20;76.40
25616;DHT22;13482;48.234;13.006;2022-08-21T09:32:51;25.40;75.60
25616;DHT22;13482;48.234;13.006;2022-08-21T09:35:20;25.50;75.10
25616;DHT22;13482;48.234;13.006;2022-08-21T09:37:55;25.50;74.60
25616;DHT22;13482;48.234;13.006;2022-08-21T09:40:41;25.60;74.30
25616;DHT22;13482;48.234;13.006;2022-08-21T09:43:20;25.60;73.00
25616;DHT22;13482;48.234;13.006;2022-08-21T09:45:51;25.70;73.70
25616;DHT22;13482;48.234;13.006;2022-08-21T09:48:49;25.70;73.30
25616;DHT22;13482;48.234;13.006;2022-08-21T09:51:23;25.70;72.50
25616;DHT22;13482;48.234;13.006;2022-08-21T09:56:36;25.80;73.20
25616;DHT22;13482;48.234;13.006;2022-08-21T09:59:32;25.90;73.20
25616;DHT22;13482;48.234;13.006;2022-08-21T10:04:56;26.10;71.00
25616;DHT22;13482;48.234;13.006;2022-08-21T10:07:28;26.10;73.30
25616;DHT22;13482;48.234;13.006;2022-08-21T10:10:06;26.20;72.90
25616;DHT22;13482;48.234;13.006;2022-08-21T10:20:47;26.50;71.40
25616;DHT22;13482;48.234;13.006;2022-08-21T10:23:41;26.50;71.60
25616;DHT22;13482;48.234;13.006;2022-08-21T10:27:09;26.50;71.90
25616;DHT22;13482;48.234;13.006;2022-08-21T10:29:50;26.50;69.50
25616;DHT22;13482;48.234;13.006;2022-08-21T10:32:35;26.60;71.60
25616;DHT22;13482;48.234;13.006;2022-08-21T10:35:14;26.60;71.20
25616;DHT22;13482;48.234;13.006;2022-08-21T10:47:01;27.00;69.60
25616;DHT22;13482;48.234;13.006;2022-08-21T10:55:55;27.30;71.40
25616;DHT22;13482;48.234;13.006;2022-08-21T10:58:29;27.50;68.60
25616;DHT22;13482;48.234;13.006;2022-08-21T11:01:03;27.50;70.30
25616;DHT22;13482;48.234;13.006;2022-08-21T11:03:44;27.60;69.90
25616;DHT22;13482;48.234;13.006;2022-08-21T11:08:58;27.70;69.80
25616;DHT22;13482;48.234;13.006;2022-08-21T11:11:35;27.80;69.40
25616;DHT22;13482;48.234;13.006;2022-08-21T11:14:18;28.00;67.90
25616;DHT22;13482;48.234;13.006;2022-08-21T11:16:57;28.10;69.60
25616;DHT22;13482;48.234;13.006;2022-08-21T11:22:45;28.20;68.60
25616;DHT22;13482;48.234;13.006;2022-08-21T11:28:17;28.40;67.30
25616;DHT22;13482;48.234;13.006;2022-08-21T11:34:24;28.50;66.20
25616;DHT22;13482;48.234;13.006;2022-08-21T11:43:11;28.80;66.40
25616;DHT22;13482;48.234;13.006;2022-08-21T11:45:51;29.00;65.50
25616;DHT22;13482;48.234;13.006;2022-08-21T11:51:25;29.30;66.90
25616;DHT22;13482;48.234;13.006;2022-08-21T11:54:28;29.40;66.00
25616;DHT22;13482;48.234;13.006;2022-08-21T11:57:12;29.50;65.20
25616;DHT22;13482;48.234;13.006;2022-08-21T12:02:33;29.60;64.70
25616;DHT22;13482;48.234;13.006;2022-08-21T12:05:09;29.70;65.70
25616;DHT22;13482;48.234;13.006;2022-08-21T12:07:47;29.80;65.20
25616;DHT22;13482;48.234;13.006;2022-08-21T12:10:17;29.90;65.30
25616;DHT22;13482;48.234;13.006;2022-08-21T12:12:48;30.00;65.30
25616;DHT22;13482;48.234;13.006;2022-08-21T12:20:34;30.20;63.50
25616;DHT22;13482;48.234;13.006;2022-08-21T12:23:32;30.20;64.00
25616;DHT22;13482;48.234;13.006;2022-08-21T12:26:25;30.30;62.40
25616;DHT22;13482;48.234;13.006;2022-08-21T12:29:12;30.40;61.20
25616;DHT22;13482;48.234;13.006;2022-08-21T12:32:43;30.50;62.10
25616;DHT22;13482;48.234;13.006;2022-08-21T12:34:49;30.60;62.20
25616;DHT22;13482;48.234;13.006;2022-08-21T12:37:43;30.70;61.50
25616;DHT22;13482;48.234;13.006;2022-08-21T12:42:46;30.80;62.70
25616;DHT22;13482;48.234;13.006;2022-08-21T12:45:31;30.90;61.60
25616;DHT22;13482;48.234;13.006;2022-08-21T12:48:29;30.90;61.60
25616;DHT22;13482;48.234;13.006;2022-08-21T12:54:29;31.00;56.30
25616;DHT22;13482;48.234;13.006;2022-08-21T12:57:01;31.00;59.80
25616;DHT22;13482;48.234;13.006;2022-08-21T12:59:32;31.00;60.30
25616;DHT22;13482;48.234;13.006;2022-08-21T13:02:14;31.00;60.10
25616;DHT22;13482;48.234;13.006;2022-08-21T13:04:44;31.00;60.20
25616;DHT22;13482;48.234;13.006;2022-08-21T13:07:16;31.00;60.80
25616;DHT22;13482;48.234;13.006;2022-08-21T13:09:53;31.10;59.80
25616;DHT22;13482;48.234;13.006;2022-08-21T13:12:24;31.10;58.40
25616;DHT22;13482;48.234;13.006;2022-08-21T13:15:02;31.00;58.20
25616;DHT22;13482;48.234;13.006;2022-08-21T13:17:38;31.00;58.80
25616;DHT22;13482;48.234;13.006;2022-08-21T13:20:10;31.00;58.40
25616;DHT22;13482;48.234;13.006;2022-08-21T13:22:49;30.90;58.50
25616;DHT22;13482;48.234;13.006;2022-08-21T13:25:19;30.90;59.00
25616;DHT22;13482;48.234;13.006;2022-08-21T13:28:09;30.90;58.70
25616;DHT22;13482;48.234;13.006;2022-08-21T13:30:50;30.90;56.30
25616;DHT22;13482;48.234;13.006;2022-08-21T13:33:22;30.90;58.10
25616;DHT22;13482;48.234;13.006;2022-08-21T13:36:09;30.90;58.00
25616;DHT22;13482;48.234;13.006;2022-08-21T13:38:47;30.90;58.10
25616;DHT22;13482;48.234;13.006;2022-08-21T13:41:33;30.90;58.40
25616;DHT22;13482;48.234;13.006;2022-08-21T13:46:54;31.00;58.10
25616;DHT22;13482;48.234;13.006;2022-08-21T13:49:30;31.10;57.50
25616;DHT22;13482;48.234;13.006;2022-08-21T13:52:00;31.10;56.90
25616;DHT22;13482;48.234;13.006;2022-08-21T13:54:40;31.20;57.80
25616;DHT22;13482;48.234;13.006;2022-08-21T13:57:25;31.30;56.10
25616;DHT22;13482;48.234;13.006;2022-08-21T14:00:16;31.30;54.50
25616;DHT22;13482;48.234;13.006;2022-08-21T14:02:49;31.30;52.70
25616;DHT22;13482;48.234;13.006;2022-08-21T14:05:26;31.30;55.60
25616;DHT22;13482;48.234;13.006;2022-08-21T14:08:12;31.20;55.50
25616;DHT22;13482;48.234;13.006;2022-08-21T14:10:56;31.10;54.60
25616;DHT22;13482;48.234;13.006;2022-08-21T14:13:46;31.00;55.40
25616;DHT22;13482;48.234;13.006;2022-08-21T14:16:19;30.90;51.80
25616;DHT22;13482;48.234;13.006;2022-08-21T14:21:39;30.80;55.90
25616;DHT22;13482;48.234;13.006;2022-08-21T14:24:14;30.80;56.70
25616;DHT22;13482;48.234;13.006;2022-08-21T14:26:54;30.80;56.10
25616;DHT22;13482;48.234;13.006;2022-08-21T14:29:26;30.80;55.90
25616;DHT22;13482;48.234;13.006;2022-08-21T14:32:09;30.70;56.00
25616;DHT22;13482;48.234;13.006;2022-08-21T14:34:51;30.70;55.50
25616;DHT22;13482;48.234;13.006;2022-08-21T14:37:21;30.60;56.40
25616;DHT22;13482;48.234;13.006;2022-08-21T14:39:50;30.60;55.90
25616;DHT22;13482;48.234;13.006;2022-08-21T14:42:17;30.50;55.80
25616;DHT22;13482;48.234;13.006;2022-08-21T14:44:45;30.50;55.40
25616;DHT22;13482;48.234;13.006;2022-08-21T14:47:12;30.30;54.80
25616;DHT22;13482;48.234;13.006;2022-08-21T14:49:40;30.20;54.60
25616;DHT22;13482;48.234;13.006;2022-08-21T14:52:07;30.00;54.70
25616;DHT22;13482;48.234;13.006;2022-08-21T14:54:34;29.90;54.60
25616;DHT22;13482;48.234;13.006;2022-08-21T14:57:06;29.80;54.90
25616;DHT22;13482;48.234;13.006;2022-08-21T14:59:36;29.70;55.00
25616;DHT22;13482;48.234;13.006;2022-08-21T15:02:04;29.60;55.50
25616;DHT22;13482;48.234;13.006;2022-08-21T15:04:35;29.60;55.60
25616;DHT22;13482;48.234;13.006;2022-08-21T15:07:03;29.60;55.10
25616;DHT22;13482;48.234;13.006;2022-08-21T15:09:31;29.50;55.30
25616;DHT22;13482;48.234;13.006;2022-08-21T15:12:00;29.40;55.50
25616;DHT22;13482;48.234;13.006;2022-08-21T15:14:32;29.50;56.00
25616;DHT22;13482;48.234;13.006;2022-08-21T15:17:02;29.60;56.40
25616;DHT22;13482;48.234;13.006;2022-08-21T15:19:30;29.80;56.50
25616;DHT22;13482;48.234;13.006;2022-08-21T15:21:57;30.00;56.40
25616;DHT22;13482;48.234;13.006;2022-08-21T15:24:25;30.20;56.10
25616;DHT22;13482;48.234;13.006;2022-08-21T15:26:53;30.40;55.10
25616;DHT22;13482;48.234;13.006;2022-08-21T15:29:21;30.50;54.60
25616;DHT22;13482;48.234;13.006;2022-08-21T15:31:57;30.50;53.70
25616;DHT22;13482;48.234;13.006;2022-08-21T15:34:43;30.50;53.80
25616;DHT22;13482;48.234;13.006;2022-08-21T15:37:10;30.50;54.70
25616;DHT22;13482;48.234;13.006;2022-08-21T15:39:37;30.60;54.80
25616;DHT22;13482;48.234;13.006;2022-08-21T15:42:07;30.80;54.90
25616;DHT22;13482;48.234;13.006;2022-08-21T15:44:40;30.90;54.60
25616;DHT22;13482;48.234;13.006;2022-08-21T15:47:28;31.00;54.40
25616;DHT22;13482;48.234;13.006;2022-08-21T15:49:56;31.10;52.90
25616;DHT22;13482;48.234;13.006;2022-08-21T15:52:23;31.30;55.00
25616;DHT22;13482;48.234;13.006;2022-08-21T15:54:51;31.50;54.60
25616;DHT22;13482;48.234;13.006;2022-08-21T15:57:21;31.80;53.80
25616;DHT22;13482;48.234;13.006;2022-08-21T16:00:05;31.90;53.00
25616;DHT22;13482;48.234;13.006;2022-08-21T16:02:42;31.90;51.60
25616;DHT22;13482;48.234;13.006;2022-08-21T16:05:10;31.90;52.20
25616;DHT22;13482;48.234;13.006;2022-08-21T16:07:39;31.80;48.80
25616;DHT22;13482;48.234;13.006;2022-08-21T16:10:07;31.60;52.20
25616;DHT22;13482;48.234;13.006;2022-08-21T16:12:37;31.50;52.30
25616;DHT22;13482;48.234;13.006;2022-08-21T16:15:09;31.40;52.00
25616;DHT22;13482;48.234;13.006;2022-08-21T16:17:47;31.30;52.30
25616;DHT22;13482;48.234;13.006;2022-08-21T16:20:20;31.30;51.50
25616;DHT22;13482;48.234;13.006;2022-08-21T16:22:52;31.20;51.60
25616;DHT22;13482;48.234;13.006;2022-08-21T16:25:21;31.00;51.80
25616;DHT22;13482;48.234;13.006;2022-08-21T16:27:52;30.90;51.80
25616;DHT22;13482;48.234;13.006;2022-08-21T16:30:26;30.80;52.10
25616;DHT22;13482;48.234;13.006;2022-08-21T16:32:55;30.80;53.10
25616;DHT22;13482;48.234;13.006;2022-08-21T16:35:23;31.00;53.50
25616;DHT22;13482;48.234;13.006;2022-08-21T16:37:51;31.30;53.80
25616;DHT22;13482;48.234;13.006;2022-08-21T16:40:19;31.60;54.10
25616;DHT22;13482;48.234;13.006;2022-08-21T16:42:49;32.10;53.50
25616;DHT22;13482;48.234;13.006;2022-08-21T16:45:18;32.50;52.90
25616;DHT22;13482;48.234;13.006;2022-08-21T16:47:49;32.80;52.40
25616;DHT22;13482;48.234;13.006;2022-08-21T16:50:21;33.10;52.10
25616;DHT22;13482;48.234;13.006;2022-08-21T16:52:50;33.50;51.70
25616;DHT22;13482;48.234;13.006;2022-08-21T16:55:18;33.80;51.50
25616;DHT22;13482;48.234;13.006;2022-08-21T16:57:45;34.10;51.20
25616;DHT22;13482;48.234;13.006;2022-08-21T17:00:13;34.30;50.80
25616;DHT22;13482;48.234;13.006;2022-08-21T17:02:53;34.50;50.50
25616;DHT22;13482;48.234;13.006;2022-08-21T17:05:21;34.80;49.10
25616;DHT22;13482;48.234;13.006;2022-08-21T17:07:48;34.90;50.30
25616;DHT22;13482;48.234;13.006;2022-08-21T17:10:16;35.10;50.10
25616;DHT22;13482;48.234;13.006;2022-08-21T17:12:50;35.30;49.60